createdAt,value
2018-03-20T00:05:42.470Z,101040.30
2018-03-20T00:08:48.082Z,101051.39
2018-03-20T00:15:02.539Z,101050.77
2018-03-20T00:18:08.719Z,101049.85
2018-03-20T00:25:00.488Z,101047.52
2018-03-20T00:28:04.366Z,101045.91
2018-03-20T00:31:10.822Z,101052.30
2018-03-20T07:11:56.097Z,101651.33
2018-03-20T07:22:25.921Z,101676.08
2018-03-20T07:33:01.057Z,101694.47
2018-03-20T07:36:10.056Z,101702.91
2018-03-20T07:39:18.039Z,101708.95
2018-03-20T07:42:23.549Z,101715.90
2018-03-20T07:45:28.983Z,101725.87
2018-03-20T07:48:33.372Z,101734.06
2018-03-20T07:51:39.595Z,101744.28
2018-03-20T07:54:43.780Z,101745.59
2018-03-20T07:57:50.896Z,101750.07
2018-03-20T08:00:57.181Z,101748.69
2018-03-20T08:04:04.612Z,101764.12
2018-03-20T08:07:08.816Z,101761.69
2018-03-20T08:10:12.247Z,101771.93
2018-03-20T08:13:15.570Z,101779.05
2018-03-20T08:35:52.714Z,101837.28
2018-03-20T08:46:16.252Z,101842.66
2018-03-20T08:49:20.316Z,101852.99
2018-03-20T08:52:23.639Z,101857.12
2018-03-20T08:55:36.988Z,101855.74
2018-03-20T08:58:50.161Z,101877.66
2018-03-20T09:01:54.641Z,101880.69
2018-03-20T09:04:59.448Z,101883.59
2018-03-20T09:08:04.927Z,101882.48
2018-03-20T09:11:08.492Z,101898.97
2018-03-20T09:14:11.892Z,101890.30
2018-03-20T09:17:15.296Z,101894.37
2018-03-20T09:20:19.514Z,101898.16
2018-03-20T09:23:22.920Z,101904.52
2018-03-20T09:26:32.773Z,101911.25
2018-03-20T09:29:39.867Z,101916.63
2018-03-20T09:43:21.761Z,101948.78
2018-03-20T11:13:33.377Z,102055.64
2018-03-20T11:16:37.455Z,102057.27
2018-03-20T11:19:40.759Z,102063.00
2018-03-20T11:22:44.078Z,102078.96
2018-03-20T11:25:48.139Z,102072.61
2018-03-20T11:28:51.468Z,102071.11
2018-03-20T11:31:54.763Z,102075.92
2018-03-20T11:34:58.091Z,102079.53
2018-03-20T11:38:01.386Z,102086.11
2018-03-20T11:41:05.470Z,102102.10
2018-03-20T11:44:08.763Z,102092.38
2018-03-20T11:47:12.075Z,102091.44
2018-03-20T11:50:15.366Z,102094.14
2018-03-20T11:53:19.526Z,102101.61
2018-03-20T11:56:22.819Z,102111.06
2018-03-20T11:59:26.131Z,102101.95
2018-03-20T12:02:30.292Z,102111.42
2018-03-20T12:05:44.318Z,102118.83
2018-03-20T12:09:10.518Z,102117.91
2018-03-20T12:12:14.869Z,102111.22
2018-03-20T12:15:19.421Z,102117.73
2018-03-20T12:18:24.046Z,102118.99
2018-03-20T12:21:30.115Z,102117.75
2018-03-20T12:24:34.298Z,102124.17
2018-03-20T12:27:37.830Z,102125.13
2018-03-20T12:30:41.219Z,102128.59
2018-03-20T12:33:44.536Z,102132.18
2018-03-20T12:36:48.609Z,102140.74
2018-03-20T12:39:51.926Z,102129.26
2018-03-20T12:42:55.218Z,102134.09
2018-03-20T12:45:58.551Z,102141.54
2018-03-20T12:49:01.848Z,102141.60
2018-03-20T12:52:05.163Z,102144.11
2018-03-20T12:55:08.468Z,102147.47
2018-03-20T12:58:11.794Z,102141.64
2018-03-20T13:01:15.108Z,102143.94
2018-03-20T13:04:18.405Z,102132.31
2018-03-20T13:07:21.715Z,102138.70
2018-03-20T13:10:25.775Z,102140.42
2018-03-20T13:13:29.099Z,102139.56
2018-03-20T13:16:32.393Z,102146.48
2018-03-20T13:19:35.703Z,102139.16
2018-03-20T13:22:39.004Z,102143.70
2018-03-20T13:25:43.083Z,102136.98
2018-03-20T13:28:46.383Z,102148.23
2018-03-20T13:31:49.695Z,102144.44
2018-03-20T13:34:53.007Z,102149.52
2018-03-20T13:37:57.090Z,102148.52
2018-03-20T13:41:00.386Z,102150.62
2018-03-20T13:44:03.707Z,102157.88
2018-03-20T13:47:07.006Z,102147.14
2018-03-20T13:50:11.149Z,102156.12
2018-03-20T13:53:32.153Z,102159.83
2018-03-20T13:56:35.446Z,102160.25
2018-03-20T13:59:38.761Z,102162.38
2018-03-20T14:02:42.066Z,102167.43
2018-03-20T14:05:45.382Z,102164.97
2018-03-20T14:08:48.684Z,102163.73
2018-03-20T14:11:51.994Z,102168.81
2018-03-20T14:14:55.305Z,102169.47
2018-03-20T14:17:58.637Z,102166.25
2018-03-20T14:21:01.968Z,102164.22
2018-03-20T14:24:05.263Z,102160.77
2018-03-20T14:27:08.580Z,102165.17
2018-03-20T14:30:11.874Z,102161.87
2018-03-20T14:33:15.190Z,102163.75
2018-03-20T14:36:19.251Z,102163.56
2018-03-20T14:39:22.576Z,102164.52
2018-03-20T14:42:25.885Z,102163.73
2018-03-20T14:45:29.203Z,102172.87
2018-03-20T14:48:33.285Z,102165.59
2018-03-20T14:51:36.584Z,102176.75
2018-03-20T14:54:39.895Z,102163.06
2018-03-20T14:57:43.209Z,102168.29
2018-03-20T15:00:46.542Z,102170.32
2018-03-20T15:03:49.838Z,102175.98
2018-03-20T15:06:53.169Z,102175.80
2018-03-20T15:09:56.475Z,102179.69
2018-03-20T15:12:59.791Z,102183.38
2018-03-20T15:16:03.125Z,102180.97
2018-03-20T15:19:06.434Z,102185.77
2018-03-20T15:22:09.751Z,102190.86
2018-03-20T15:25:13.053Z,102191.34
2018-03-20T15:28:16.383Z,102192.70
2018-03-20T15:31:19.682Z,102192.52
2018-03-20T15:34:22.992Z,102193.11
2018-03-20T15:37:26.286Z,102190.86
2018-03-20T15:40:29.591Z,102194.80
2018-03-20T15:43:32.908Z,102196.77
2018-03-20T15:46:36.202Z,102199.19
2018-03-20T15:49:39.512Z,102203.50
2018-03-20T15:52:42.814Z,102208.58
2018-03-20T15:55:46.128Z,102207.58
2018-03-20T15:58:50.188Z,102212.24
2018-03-20T16:01:53.494Z,102206.50
2018-03-20T16:04:56.782Z,102214.84
2018-03-20T16:08:00.090Z,102216.98
2018-03-20T16:11:03.402Z,102216.04
2018-03-20T16:14:06.706Z,102217.08
2018-03-20T16:17:10.023Z,102220.80
2018-03-20T16:20:14.085Z,102220.12
2018-03-20T16:23:17.406Z,102232.19
2018-03-20T16:26:20.740Z,102228.39
2018-03-20T16:29:24.841Z,102234.58
2018-03-20T16:32:28.151Z,102229.56
2018-03-20T16:35:32.212Z,102228.38
2018-03-20T16:38:35.534Z,102231.85
2018-03-20T16:41:38.831Z,102233.67
2018-03-20T16:44:42.142Z,102238.73
2018-03-20T16:47:46.194Z,102242.19
2018-03-20T16:50:49.511Z,102255.03
2018-03-20T16:53:52.795Z,102252.77
2018-03-20T16:56:56.117Z,102264.39
2018-03-20T16:59:59.427Z,102264.08
2018-03-20T17:03:02.743Z,102264.90
2018-03-20T17:06:06.798Z,102272.82
2018-03-20T17:09:10.107Z,102279.38
2018-03-20T17:12:13.419Z,102274.67
2018-03-20T17:15:16.730Z,102274.98
2018-03-20T17:18:20.043Z,102283.27
2018-03-20T17:21:24.122Z,102286.66
2018-03-20T17:24:27.452Z,102293.36
2018-03-20T17:27:31.515Z,102297.77
2018-03-20T17:30:34.823Z,102292.49
2018-03-20T17:33:38.140Z,102297.78
2018-03-20T17:36:41.471Z,102301.35
2018-03-20T17:39:44.766Z,102302.58
2018-03-20T17:42:48.094Z,102310.17
2018-03-20T17:45:51.399Z,102322.09
2018-03-20T17:48:54.719Z,102325.29
2018-03-20T17:51:58.051Z,102332.84
2018-03-20T17:55:01.357Z,102335.76
2018-03-20T17:58:04.692Z,102344.58
2018-03-20T18:01:08.840Z,102342.72
2018-03-20T18:04:12.940Z,102351.41
2018-03-20T18:07:16.243Z,102352.58
2018-03-20T18:10:19.564Z,102360.94
2018-03-20T18:13:22.919Z,102353.83
2018-03-20T18:16:26.235Z,102361.03
2018-03-20T18:19:29.571Z,102363.09
2018-03-20T18:22:32.875Z,102361.25
2018-03-20T18:25:36.204Z,102368.39
2018-03-20T18:28:39.537Z,102370.30
2018-03-20T18:31:42.876Z,102372.59
2018-03-20T18:34:46.191Z,102365.08
2018-03-20T18:37:49.519Z,102373.82
2018-03-20T18:40:53.613Z,102370.76
2018-03-20T18:43:56.960Z,102379.84
2018-03-20T18:47:00.271Z,102384.42
2018-03-20T18:50:03.599Z,102383.63
2018-03-20T18:53:06.935Z,102386.05
2018-03-20T18:56:10.263Z,102390.27
2018-03-20T18:59:13.599Z,102398.48
2018-03-20T19:02:16.951Z,102396.55
2018-03-20T19:05:20.263Z,102403.63
2018-03-20T19:08:23.608Z,102400.80
2018-03-20T19:11:26.956Z,102401.98
2018-03-20T19:14:30.290Z,102401.43
2018-03-20T19:17:33.663Z,102412.39
2018-03-20T19:20:37.006Z,102421.25
2018-03-20T19:23:42.089Z,102432.92
2018-03-20T20:08:00.587Z,102476.86
2018-03-20T20:11:04.011Z,102481.55
2018-03-20T20:14:07.456Z,102472.30
2018-03-20T20:17:10.971Z,102482.55
2018-03-20T20:20:14.653Z,102483.19
2018-03-20T20:23:18.965Z,102490.52
2018-03-20T20:26:22.989Z,102486.19
2018-03-20T20:29:26.461Z,102490.63
2018-03-20T20:32:30.172Z,102496.11
2018-03-20T20:35:33.646Z,102496.34
2018-03-20T20:38:38.272Z,102493.37
2018-03-20T20:41:41.820Z,102492.61
2018-03-20T20:44:46.392Z,102504.30
2018-03-20T20:47:50.417Z,102499.30
2018-03-20T20:50:57.641Z,102500.23
2018-03-20T20:54:02.278Z,102504.55
2018-03-20T20:57:05.719Z,102503.33
2018-03-20T21:00:11.254Z,102496.03
2018-03-20T21:03:15.656Z,102506.19
2018-03-20T21:06:19.482Z,102504.13
2018-03-20T21:09:24.568Z,102510.59
2018-03-20T21:12:28.154Z,102517.87
2018-03-20T21:15:33.626Z,102521.42
2018-03-20T21:18:43.286Z,102519.22
2018-03-20T21:21:50.613Z,102516.84
2018-03-20T21:24:54.086Z,102516.60
2018-03-20T21:27:58.900Z,102516.34
2018-03-20T21:31:03.093Z,102516.84
2018-03-20T21:34:07.565Z,102511.42
2018-03-20T21:37:11.089Z,102512.95
2018-03-20T21:40:14.598Z,102516.27
2018-03-20T21:43:18.883Z,102516.00
2018-03-20T21:46:23.657Z,102511.24
2018-03-20T21:49:27.889Z,102518.48
2018-03-20T21:52:31.592Z,102515.62
2018-03-20T21:55:37.650Z,102513.30
2018-03-20T21:58:41.798Z,102515.12
2018-03-20T22:01:48.366Z,102520.28
2018-03-20T22:04:52.080Z,102512.73
2018-03-20T22:07:56.626Z,102521.48
2018-03-20T22:11:00.199Z,102530.27
2018-03-20T22:14:04.892Z,102528.50
2018-03-20T22:17:11.151Z,102527.67
2018-03-20T22:20:15.888Z,102528.73
2018-03-20T22:23:40.789Z,102532.81
2018-03-20T22:30:06.022Z,102530.99
2018-03-20T22:33:15.837Z,102533.58
2018-03-20T22:36:25.349Z,102535.06
2018-03-20T22:42:47.097Z,102537.97
2018-03-20T22:45:56.954Z,102536.58
2018-03-20T22:49:05.966Z,102543.39
2018-03-20T22:52:15.112Z,102544.16
2018-03-20T22:55:23.130Z,102542.62
2018-03-20T22:58:31.348Z,102535.19
2018-03-20T23:01:40.458Z,102535.27
2018-03-20T23:04:45.281Z,102542.59
2018-03-20T23:07:52.109Z,102542.52
2018-03-20T23:11:05.230Z,102546.95
2018-03-20T23:14:13.570Z,102550.63
2018-03-20T23:17:19.514Z,102550.74
2018-03-20T23:23:47.507Z,102557.66
2018-03-20T23:26:57.682Z,102547.49
2018-03-20T23:30:08.037Z,102548.37
2018-03-20T23:36:26.371Z,102545.34
2018-03-20T23:42:44.632Z,102548.52
2018-03-20T23:49:02.628Z,102540.62
2018-03-20T23:52:08.974Z,102537.88
